sensor_id;sensor_type;location;lat;lon;timestamp;P1;durP1;ratioP1;P2;durP2;ratioP2
30948;SDS011;17637;51.984;21.208;2022-12-29T00:02:10;13.93;;;7.90;;
30948;SDS011;17637;51.984;21.208;2022-12-29T00:04:44;12.93;;;7.93;;
30948;SDS011;17637;51.984;21.208;2022-12-29T00:07:16;15.35;;;8.05;;
30948;SDS011;17637;51.984;21.208;2022-12-29T00:09:49;12.48;;;7.85;;
30948;SDS011;17637;51.984;21.208;2022-12-29T00:12:21;13.10;;;8.68;;
30948;SDS011;17637;51.984;21.208;2022-12-29T00:14:53;12.68;;;7.95;;
30948;SDS011;17637;51.984;21.208;2022-12-29T00:17:43;13.15;;;7.90;;
30948;SDS011;17637;51.984;21.208;2022-12-29T00:20:15;12.73;;;7.07;;
30948;SDS011;17637;51.984;21.208;2022-12-29T00:26:02;11.65;;;7.35;;
30948;SDS011;17637;51.984;21.208;2022-12-29T00:29:01;12.52;;;7.28;;
30948;SDS011;17637;51.984;21.208;2022-12-29T00:31:52;11.45;;;6.78;;
30948;SDS011;17637;51.984;21.208;2022-12-29T00:34:43;13.88;;;7.80;;
30948;SDS011;17637;51.984;21.208;2022-12-29T00:37:34;12.50;;;7.05;;
30948;SDS011;17637;51.984;21.208;2022-12-29T00:40:30;10.80;;;6.60;;
30948;SDS011;17637;51.984;21.208;2022-12-29T00:43:21;10.73;;;6.68;;
30948;SDS011;17637;51.984;21.208;2022-12-29T00:46:11;12.20;;;6.95;;
30948;SDS011;17637;51.984;21.208;2022-12-29T00:48:50;11.55;;;6.63;;
30948;SDS011;17637;51.984;21.208;2022-12-29T00:51:41;10.93;;;6.60;;
30948;SDS011;17637;51.984;21.208;2022-12-29T00:54:13;9.25;;;5.93;;
30948;SDS011;17637;51.984;21.208;2022-12-29T00:56:48;12.68;;;6.45;;
30948;SDS011;17637;51.984;21.208;2022-12-29T00:59:21;10.43;;;6.20;;
30948;SDS011;17637;51.984;21.208;2022-12-29T01:01:55;10.50;;;6.72;;
30948;SDS011;17637;51.984;21.208;2022-12-29T01:04:28;10.38;;;6.00;;
30948;SDS011;17637;51.984;21.208;2022-12-29T01:07:00;11.80;;;5.97;;
30948;SDS011;17637;51.984;21.208;2022-12-29T01:09:32;9.05;;;6.15;;
30948;SDS011;17637;51.984;21.208;2022-12-29T01:12:23;11.43;;;6.90;;
30948;SDS011;17637;51.984;21.208;2022-12-29T01:15:13;10.57;;;5.93;;
30948;SDS011;17637;51.984;21.208;2022-12-29T01:17:46;11.68;;;6.20;;
30948;SDS011;17637;51.984;21.208;2022-12-29T01:20:18;10.52;;;6.63;;
30948;SDS011;17637;51.984;21.208;2022-12-29T01:22:50;9.63;;;6.28;;
30948;SDS011;17637;51.984;21.208;2022-12-29T01:25:22;10.85;;;6.18;;
30948;SDS011;17637;51.984;21.208;2022-12-29T01:27:55;11.68;;;6.10;;
30948;SDS011;17637;51.984;21.208;2022-12-29T01:30:27;8.35;;;6.22;;
30948;SDS011;17637;51.984;21.208;2022-12-29T01:32:58;10.55;;;6.25;;
30948;SDS011;17637;51.984;21.208;2022-12-29T01:35:30;10.13;;;5.82;;
30948;SDS011;17637;51.984;21.208;2022-12-29T01:38:03;9.02;;;5.70;;
30948;SDS011;17637;51.984;21.208;2022-12-29T01:40:42;10.75;;;6.22;;
30948;SDS011;17637;51.984;21.208;2022-12-29T01:43:15;11.00;;;6.47;;
30948;SDS011;17637;51.984;21.208;2022-12-29T01:45:53;10.85;;;5.70;;
30948;SDS011;17637;51.984;21.208;2022-12-29T01:48:26;12.27;;;7.35;;
30948;SDS011;17637;51.984;21.208;2022-12-29T01:50:58;14.65;;;8.35;;
30948;SDS011;17637;51.984;21.208;2022-12-29T01:53:30;16.58;;;8.98;;
30948;SDS011;17637;51.984;21.208;2022-12-29T01:56:06;26.67;;;12.95;;
30948;SDS011;17637;51.984;21.208;2022-12-29T01:58:44;24.25;;;13.23;;
30948;SDS011;17637;51.984;21.208;2022-12-29T02:01:18;26.30;;;13.32;;
30948;SDS011;17637;51.984;21.208;2022-12-29T02:03:51;28.42;;;15.68;;
30948;SDS011;17637;51.984;21.208;2022-12-29T02:06:25;41.58;;;21.13;;
30948;SDS011;17637;51.984;21.208;2022-12-29T02:09:11;31.90;;;16.05;;
30948;SDS011;17637;51.984;21.208;2022-12-29T02:11:44;35.47;;;18.85;;
30948;SDS011;17637;51.984;21.208;2022-12-29T02:14:17;37.65;;;20.55;;
30948;SDS011;17637;51.984;21.208;2022-12-29T02:22:53;18.23;;;11.67;;
30948;SDS011;17637;51.984;21.208;2022-12-29T02:31:17;18.30;;;9.90;;
30948;SDS011;17637;51.984;21.208;2022-12-29T02:34:38;14.98;;;8.75;;
30948;SDS011;17637;51.984;21.208;2022-12-29T02:46:04;14.48;;;8.32;;
30948;SDS011;17637;51.984;21.208;2022-12-29T02:48:52;12.57;;;7.15;;
30948;SDS011;17637;51.984;21.208;2022-12-29T02:54:11;12.88;;;7.75;;
30948;SDS011;17637;51.984;21.208;2022-12-29T02:57:02;15.68;;;8.52;;
30948;SDS011;17637;51.984;21.208;2022-12-29T02:59:34;14.43;;;8.32;;
30948;SDS011;17637;51.984;21.208;2022-12-29T03:07:50;15.52;;;7.72;;
30948;SDS011;17637;51.984;21.208;2022-12-29T03:13:39;13.85;;;8.60;;
30948;SDS011;17637;51.984;21.208;2022-12-29T03:16:37;12.68;;;8.60;;
30948;SDS011;17637;51.984;21.208;2022-12-29T03:19:19;13.95;;;8.57;;
30948;SDS011;17637;51.984;21.208;2022-12-29T03:22:07;14.25;;;9.25;;
30948;SDS011;17637;51.984;21.208;2022-12-29T03:25:19;13.75;;;8.77;;
30948;SDS011;17637;51.984;21.208;2022-12-29T03:27:56;19.30;;;9.23;;
30948;SDS011;17637;51.984;21.208;2022-12-29T03:30:32;14.73;;;9.03;;
30948;SDS011;17637;51.984;21.208;2022-12-29T03:33:08;14.50;;;8.77;;
30948;SDS011;17637;51.984;21.208;2022-12-29T03:35:44;19.52;;;9.60;;
30948;SDS011;17637;51.984;21.208;2022-12-29T03:38:38;14.73;;;9.32;;
30948;SDS011;17637;51.984;21.208;2022-12-29T03:41:22;16.02;;;8.50;;
30948;SDS011;17637;51.984;21.208;2022-12-29T03:43:58;15.50;;;8.52;;
30948;SDS011;17637;51.984;21.208;2022-12-29T03:46:30;16.05;;;8.77;;
30948;SDS011;17637;51.984;21.208;2022-12-29T03:49:02;14.95;;;9.43;;
30948;SDS011;17637;51.984;21.208;2022-12-29T03:51:34;16.52;;;9.10;;
30948;SDS011;17637;51.984;21.208;2022-12-29T03:54:06;12.50;;;7.75;;
30948;SDS011;17637;51.984;21.208;2022-12-29T03:56:38;14.18;;;9.20;;
30948;SDS011;17637;51.984;21.208;2022-12-29T03:59:10;19.73;;;11.90;;
30948;SDS011;17637;51.984;21.208;2022-12-29T04:01:42;16.88;;;10.68;;
30948;SDS011;17637;51.984;21.208;2022-12-29T04:04:14;17.85;;;11.50;;
30948;SDS011;17637;51.984;21.208;2022-12-29T04:06:47;18.23;;;10.90;;
30948;SDS011;17637;51.984;21.208;2022-12-29T04:09:19;14.82;;;9.15;;
30948;SDS011;17637;51.984;21.208;2022-12-29T04:11:51;16.15;;;9.95;;
30948;SDS011;17637;51.984;21.208;2022-12-29T04:14:23;13.57;;;9.48;;
30948;SDS011;17637;51.984;21.208;2022-12-29T04:16:55;20.50;;;10.50;;
30948;SDS011;17637;51.984;21.208;2022-12-29T04:19:27;16.40;;;9.60;;
30948;SDS011;17637;51.984;21.208;2022-12-29T04:21:59;15.90;;;9.55;;
30948;SDS011;17637;51.984;21.208;2022-12-29T04:24:31;20.23;;;11.30;;
30948;SDS011;17637;51.984;21.208;2022-12-29T04:27:03;18.02;;;10.25;;
30948;SDS011;17637;51.984;21.208;2022-12-29T04:29:35;20.73;;;10.48;;
30948;SDS011;17637;51.984;21.208;2022-12-29T04:32:07;15.82;;;9.05;;
30948;SDS011;17637;51.984;21.208;2022-12-29T04:34:39;15.30;;;9.13;;
30948;SDS011;17637;51.984;21.208;2022-12-29T04:37:11;22.20;;;9.90;;
30948;SDS011;17637;51.984;21.208;2022-12-29T04:39:43;15.88;;;9.35;;
30948;SDS011;17637;51.984;21.208;2022-12-29T04:42:15;19.48;;;10.27;;
30948;SDS011;17637;51.984;21.208;2022-12-29T04:44:48;15.63;;;9.18;;
30948;SDS011;17637;51.984;21.208;2022-12-29T04:47:20;15.75;;;9.23;;
30948;SDS011;17637;51.984;21.208;2022-12-29T04:49:52;18.45;;;10.60;;
30948;SDS011;17637;51.984;21.208;2022-12-29T04:52:24;11.50;;;7.90;;
30948;SDS011;17637;51.984;21.208;2022-12-29T04:54:56;15.50;;;9.32;;
30948;SDS011;17637;51.984;21.208;2022-12-29T04:57:27;16.90;;;9.95;;
30948;SDS011;17637;51.984;21.208;2022-12-29T04:59:59;16.92;;;9.77;;
30948;SDS011;17637;51.984;21.208;2022-12-29T05:02:31;20.05;;;10.98;;
30948;SDS011;17637;51.984;21.208;2022-12-29T05:05:04;16.80;;;9.98;;
30948;SDS011;17637;51.984;21.208;2022-12-29T05:07:36;17.73;;;9.05;;
30948;SDS011;17637;51.984;21.208;2022-12-29T05:10:08;17.17;;;10.23;;
30948;SDS011;17637;51.984;21.208;2022-12-29T05:12:40;17.98;;;10.45;;
30948;SDS011;17637;51.984;21.208;2022-12-29T05:15:13;16.08;;;9.98;;
30948;SDS011;17637;51.984;21.208;2022-12-29T05:17:45;16.17;;;9.20;;
30948;SDS011;17637;51.984;21.208;2022-12-29T05:20:17;15.95;;;8.85;;
30948;SDS011;17637;51.984;21.208;2022-12-29T05:22:49;14.75;;;8.77;;
30948;SDS011;17637;51.984;21.208;2022-12-29T05:25:21;15.18;;;9.45;;
30948;SDS011;17637;51.984;21.208;2022-12-29T05:27:53;14.60;;;8.80;;
30948;SDS011;17637;51.984;21.208;2022-12-29T05:30:24;13.18;;;8.40;;
30948;SDS011;17637;51.984;21.208;2022-12-29T05:32:56;13.35;;;8.40;;
30948;SDS011;17637;51.984;21.208;2022-12-29T05:35:28;13.88;;;8.38;;
30948;SDS011;17637;51.984;21.208;2022-12-29T05:38:00;12.18;;;7.75;;
30948;SDS011;17637;51.984;21.208;2022-12-29T05:40:32;13.52;;;8.07;;
30948;SDS011;17637;51.984;21.208;2022-12-29T05:43:04;16.98;;;8.90;;
30948;SDS011;17637;51.984;21.208;2022-12-29T05:45:37;12.93;;;8.15;;
30948;SDS011;17637;51.984;21.208;2022-12-29T05:48:09;14.00;;;9.15;;
30948;SDS011;17637;51.984;21.208;2022-12-29T05:50:41;17.02;;;9.50;;
30948;SDS011;17637;51.984;21.208;2022-12-29T05:53:13;13.20;;;8.77;;
30948;SDS011;17637;51.984;21.208;2022-12-29T05:55:48;15.57;;;8.82;;
30948;SDS011;17637;51.984;21.208;2022-12-29T05:58:21;14.30;;;8.43;;
30948;SDS011;17637;51.984;21.208;2022-12-29T06:00:52;14.70;;;9.13;;
30948;SDS011;17637;51.984;21.208;2022-12-29T06:03:24;13.55;;;8.63;;
30948;SDS011;17637;51.984;21.208;2022-12-29T06:05:57;11.45;;;8.05;;
30948;SDS011;17637;51.984;21.208;2022-12-29T06:08:28;14.30;;;9.57;;
30948;SDS011;17637;51.984;21.208;2022-12-29T06:11:00;15.10;;;9.13;;
30948;SDS011;17637;51.984;21.208;2022-12-29T06:13:32;17.75;;;9.27;;
30948;SDS011;17637;51.984;21.208;2022-12-29T06:16:04;12.68;;;8.05;;
30948;SDS011;17637;51.984;21.208;2022-12-29T06:18:37;11.20;;;7.78;;
30948;SDS011;17637;51.984;21.208;2022-12-29T06:21:08;11.43;;;7.45;;
30948;SDS011;17637;51.984;21.208;2022-12-29T06:23:40;11.60;;;7.70;;
30948;SDS011;17637;51.984;21.208;2022-12-29T06:26:12;12.80;;;7.57;;
30948;SDS011;17637;51.984;21.208;2022-12-29T06:28:44;13.52;;;7.53;;
30948;SDS011;17637;51.984;21.208;2022-12-29T06:31:16;11.35;;;7.32;;
30948;SDS011;17637;51.984;21.208;2022-12-29T06:33:48;12.70;;;7.82;;
30948;SDS011;17637;51.984;21.208;2022-12-29T06:36:20;12.93;;;7.20;;
30948;SDS011;17637;51.984;21.208;2022-12-29T06:38:52;14.82;;;8.60;;
30948;SDS011;17637;51.984;21.208;2022-12-29T06:41:24;13.80;;;8.35;;
30948;SDS011;17637;51.984;21.208;2022-12-29T06:44:02;12.30;;;7.55;;
30948;SDS011;17637;51.984;21.208;2022-12-29T06:46:34;15.77;;;9.90;;
30948;SDS011;17637;51.984;21.208;2022-12-29T06:49:06;16.65;;;9.45;;
30948;SDS011;17637;51.984;21.208;2022-12-29T06:51:38;12.80;;;7.57;;
30948;SDS011;17637;51.984;21.208;2022-12-29T06:54:10;19.48;;;9.75;;
30948;SDS011;17637;51.984;21.208;2022-12-29T06:56:42;12.77;;;7.70;;
30948;SDS011;17637;51.984;21.208;2022-12-29T06:59:14;14.13;;;9.18;;
30948;SDS011;17637;51.984;21.208;2022-12-29T07:01:47;14.88;;;8.88;;
30948;SDS011;17637;51.984;21.208;2022-12-29T07:04:19;15.60;;;9.65;;
30948;SDS011;17637;51.984;21.208;2022-12-29T07:06:51;11.60;;;7.70;;
30948;SDS011;17637;51.984;21.208;2022-12-29T07:09:23;9.93;;;6.30;;
30948;SDS011;17637;51.984;21.208;2022-12-29T07:11:55;10.00;;;6.28;;
30948;SDS011;17637;51.984;21.208;2022-12-29T07:14:27;10.95;;;6.38;;
30948;SDS011;17637;51.984;21.208;2022-12-29T07:16:59;13.73;;;6.75;;
30948;SDS011;17637;51.984;21.208;2022-12-29T07:19:34;10.80;;;6.97;;
30948;SDS011;17637;51.984;21.208;2022-12-29T07:22:06;11.25;;;7.07;;
30948;SDS011;17637;51.984;21.208;2022-12-29T07:24:38;10.70;;;6.88;;
30948;SDS011;17637;51.984;21.208;2022-12-29T07:27:10;10.85;;;6.50;;
30948;SDS011;17637;51.984;21.208;2022-12-29T07:29:42;10.07;;;6.53;;
30948;SDS011;17637;51.984;21.208;2022-12-29T07:32:13;13.73;;;6.78;;
30948;SDS011;17637;51.984;21.208;2022-12-29T07:34:45;10.38;;;6.25;;
30948;SDS011;17637;51.984;21.208;2022-12-29T07:37:18;11.13;;;6.05;;
30948;SDS011;17637;51.984;21.208;2022-12-29T07:39:51;12.07;;;6.40;;
30948;SDS011;17637;51.984;21.208;2022-12-29T07:42:23;11.38;;;7.10;;
30948;SDS011;17637;51.984;21.208;2022-12-29T07:44:55;12.27;;;6.85;;
30948;SDS011;17637;51.984;21.208;2022-12-29T07:47:27;9.93;;;5.90;;
30948;SDS011;17637;51.984;21.208;2022-12-29T07:49:59;11.35;;;5.85;;
30948;SDS011;17637;51.984;21.208;2022-12-29T07:52:31;13.75;;;8.30;;
30948;SDS011;17637;51.984;21.208;2022-12-29T07:55:03;12.55;;;7.40;;
30948;SDS011;17637;51.984;21.208;2022-12-29T07:57:35;13.43;;;7.45;;
30948;SDS011;17637;51.984;21.208;2022-12-29T08:00:08;10.77;;;6.57;;
30948;SDS011;17637;51.984;21.208;2022-12-29T08:02:41;10.80;;;6.95;;
30948;SDS011;17637;51.984;21.208;2022-12-29T08:05:13;18.27;;;10.68;;
30948;SDS011;17637;51.984;21.208;2022-12-29T08:07:45;10.82;;;7.07;;
30948;SDS011;17637;51.984;21.208;2022-12-29T08:10:18;13.27;;;8.48;;
30948;SDS011;17637;51.984;21.208;2022-12-29T08:12:50;11.38;;;7.55;;
30948;SDS011;17637;51.984;21.208;2022-12-29T08:15:22;9.88;;;6.60;;
30948;SDS011;17637;51.984;21.208;2022-12-29T08:18:02;13.65;;;6.85;;
30948;SDS011;17637;51.984;21.208;2022-12-29T08:20:34;10.30;;;6.65;;
30948;SDS011;17637;51.984;21.208;2022-12-29T08:23:06;11.25;;;6.38;;
30948;SDS011;17637;51.984;21.208;2022-12-29T08:25:38;10.45;;;6.20;;
30948;SDS011;17637;51.984;21.208;2022-12-29T08:28:10;9.98;;;6.18;;
30948;SDS011;17637;51.984;21.208;2022-12-29T08:30:42;11.07;;;6.60;;
30948;SDS011;17637;51.984;21.208;2022-12-29T08:33:14;14.45;;;6.72;;
30948;SDS011;17637;51.984;21.208;2022-12-29T08:35:46;10.80;;;6.75;;
30948;SDS011;17637;51.984;21.208;2022-12-29T08:38:18;11.73;;;6.10;;
30948;SDS011;17637;51.984;21.208;2022-12-29T08:40:51;11.63;;;6.35;;
30948;SDS011;17637;51.984;21.208;2022-12-29T08:43:23;10.95;;;6.35;;
30948;SDS011;17637;51.984;21.208;2022-12-29T08:45:56;11.25;;;7.40;;
30948;SDS011;17637;51.984;21.208;2022-12-29T08:48:29;16.58;;;8.60;;
30948;SDS011;17637;51.984;21.208;2022-12-29T08:51:01;12.93;;;8.45;;
30948;SDS011;17637;51.984;21.208;2022-12-29T08:53:33;15.00;;;8.27;;
30948;SDS011;17637;51.984;21.208;2022-12-29T08:56:06;9.68;;;6.85;;
30948;SDS011;17637;51.984;21.208;2022-12-29T08:58:40;11.48;;;7.20;;
30948;SDS011;17637;51.984;21.208;2022-12-29T09:01:12;10.25;;;6.47;;
30948;SDS011;17637;51.984;21.208;2022-12-29T09:03:44;11.07;;;6.60;;
30948;SDS011;17637;51.984;21.208;2022-12-29T09:06:37;9.57;;;5.55;;
30948;SDS011;17637;51.984;21.208;2022-12-29T09:09:11;9.25;;;5.80;;
30948;SDS011;17637;51.984;21.208;2022-12-29T09:11:43;10.32;;;5.90;;
30948;SDS011;17637;51.984;21.208;2022-12-29T09:14:15;9.55;;;6.13;;
30948;SDS011;17637;51.984;21.208;2022-12-29T09:16:47;11.18;;;6.10;;
30948;SDS011;17637;51.984;21.208;2022-12-29T09:19:40;9.63;;;5.72;;
30948;SDS011;17637;51.984;21.208;2022-12-29T09:22:13;10.20;;;6.60;;
30948;SDS011;17637;51.984;21.208;2022-12-29T09:24:45;14.65;;;10.02;;
30948;SDS011;17637;51.984;21.208;2022-12-29T09:27:17;8.95;;;5.78;;
30948;SDS011;17637;51.984;21.208;2022-12-29T09:29:49;8.65;;;5.60;;
30948;SDS011;17637;51.984;21.208;2022-12-29T09:32:21;7.50;;;5.35;;
30948;SDS011;17637;51.984;21.208;2022-12-29T09:34:54;10.82;;;6.55;;
30948;SDS011;17637;51.984;21.208;2022-12-29T09:37:27;16.55;;;9.80;;
30948;SDS011;17637;51.984;21.208;2022-12-29T09:39:59;9.68;;;6.20;;
30948;SDS011;17637;51.984;21.208;2022-12-29T09:42:32;8.40;;;5.75;;
30948;SDS011;17637;51.984;21.208;2022-12-29T09:45:14;10.48;;;6.45;;
30948;SDS011;17637;51.984;21.208;2022-12-29T09:47:50;9.68;;;5.78;;
30948;SDS011;17637;51.984;21.208;2022-12-29T09:50:23;7.25;;;5.22;;
30948;SDS011;17637;51.984;21.208;2022-12-29T09:53:01;10.90;;;7.85;;
30948;SDS011;17637;51.984;21.208;2022-12-29T09:55:55;8.75;;;5.88;;
30948;SDS011;17637;51.984;21.208;2022-12-29T09:58:32;9.23;;;5.38;;
30948;SDS011;17637;51.984;21.208;2022-12-29T10:01:17;8.57;;;5.68;;
30948;SDS011;17637;51.984;21.208;2022-12-29T10:04:00;10.48;;;6.93;;
30948;SDS011;17637;51.984;21.208;2022-12-29T10:09:41;10.23;;;6.75;;
30948;SDS011;17637;51.984;21.208;2022-12-29T10:18:24;10.93;;;6.53;;
30948;SDS011;17637;51.984;21.208;2022-12-29T10:24:01;9.25;;;6.40;;
30948;SDS011;17637;51.984;21.208;2022-12-29T10:26:39;10.43;;;7.10;;
30948;SDS011;17637;51.984;21.208;2022-12-29T10:29:15;10.02;;;6.35;;
30948;SDS011;17637;51.984;21.208;2022-12-29T10:35:40;11.02;;;6.50;;
30948;SDS011;17637;51.984;21.208;2022-12-29T10:41:03;9.57;;;6.75;;
30948;SDS011;17637;51.984;21.208;2022-12-29T10:43:50;9.05;;;5.88;;
30948;SDS011;17637;51.984;21.208;2022-12-29T10:46:25;11.30;;;7.32;;
30948;SDS011;17637;51.984;21.208;2022-12-29T10:49:05;11.45;;;7.30;;
30948;SDS011;17637;51.984;21.208;2022-12-29T10:51:46;10.02;;;5.57;;
30948;SDS011;17637;51.984;21.208;2022-12-29T10:54:25;8.80;;;5.22;;
30948;SDS011;17637;51.984;21.208;2022-12-29T10:57:27;8.40;;;5.57;;
30948;SDS011;17637;51.984;21.208;2022-12-29T11:00:11;9.05;;;5.47;;
30948;SDS011;17637;51.984;21.208;2022-12-29T11:05:31;9.75;;;5.47;;
30948;SDS011;17637;51.984;21.208;2022-12-29T11:08:15;7.53;;;5.05;;
30948;SDS011;17637;51.984;21.208;2022-12-29T11:10:57;8.75;;;5.60;;
30948;SDS011;17637;51.984;21.208;2022-12-29T11:13:35;9.98;;;5.68;;
30948;SDS011;17637;51.984;21.208;2022-12-29T11:16:26;8.00;;;5.50;;
30948;SDS011;17637;51.984;21.208;2022-12-29T11:19:04;9.27;;;5.63;;
30948;SDS011;17637;51.984;21.208;2022-12-29T11:21:37;8.05;;;5.53;;
30948;SDS011;17637;51.984;21.208;2022-12-29T11:26:55;9.13;;;5.47;;
30948;SDS011;17637;51.984;21.208;2022-12-29T11:29:46;14.15;;;7.82;;
30948;SDS011;17637;51.984;21.208;2022-12-29T11:34:59;12.30;;;6.53;;
30948;SDS011;17637;51.984;21.208;2022-12-29T11:37:36;8.35;;;5.97;;
30948;SDS011;17637;51.984;21.208;2022-12-29T11:40:20;15.32;;;9.10;;
30948;SDS011;17637;51.984;21.208;2022-12-29T11:42:53;10.93;;;7.10;;
30948;SDS011;17637;51.984;21.208;2022-12-29T11:45:37;10.00;;;6.25;;
30948;SDS011;17637;51.984;21.208;2022-12-29T11:48:19;8.43;;;5.80;;
30948;SDS011;17637;51.984;21.208;2022-12-29T11:50:53;9.50;;;6.22;;
30948;SDS011;17637;51.984;21.208;2022-12-29T11:56:09;14.95;;;6.43;;
30948;SDS011;17637;51.984;21.208;2022-12-29T11:58:44;13.77;;;7.07;;
30948;SDS011;17637;51.984;21.208;2022-12-29T12:01:17;8.73;;;6.28;;
30948;SDS011;17637;51.984;21.208;2022-12-29T12:06:35;16.40;;;10.57;;
30948;SDS011;17637;51.984;21.208;2022-12-29T12:09:23;13.07;;;7.70;;
30948;SDS011;17637;51.984;21.208;2022-12-29T12:12:00;16.73;;;8.75;;
30948;SDS011;17637;51.984;21.208;2022-12-29T12:14:36;11.27;;;6.70;;
30948;SDS011;17637;51.984;21.208;2022-12-29T12:17:23;11.10;;;6.35;;
30948;SDS011;17637;51.984;21.208;2022-12-29T12:25:59;14.27;;;9.40;;
30948;SDS011;17637;51.984;21.208;2022-12-29T12:35:00;13.25;;;7.10;;
30948;SDS011;17637;51.984;21.208;2022-12-29T12:37:37;9.80;;;6.30;;
30948;SDS011;17637;51.984;21.208;2022-12-29T12:51:50;10.95;;;6.97;;
30948;SDS011;17637;51.984;21.208;2022-12-29T12:54:43;13.93;;;6.70;;
30948;SDS011;17637;51.984;21.208;2022-12-29T12:57:40;13.93;;;7.00;;
30948;SDS011;17637;51.984;21.208;2022-12-29T13:00:25;12.40;;;6.78;;
30948;SDS011;17637;51.984;21.208;2022-12-29T13:11:20;12.88;;;7.10;;
30948;SDS011;17637;51.984;21.208;2022-12-29T13:16:39;10.85;;;7.47;;
30948;SDS011;17637;51.984;21.208;2022-12-29T13:19:27;13.15;;;7.32;;
30948;SDS011;17637;51.984;21.208;2022-12-29T13:22:17;12.48;;;7.82;;
30948;SDS011;17637;51.984;21.208;2022-12-29T13:30:34;11.40;;;6.32;;
30948;SDS011;17637;51.984;21.208;2022-12-29T13:33:37;11.98;;;6.60;;
30948;SDS011;17637;51.984;21.208;2022-12-29T13:36:19;10.82;;;6.03;;
30948;SDS011;17637;51.984;21.208;2022-12-29T13:41:53;10.63;;;6.28;;
30948;SDS011;17637;51.984;21.208;2022-12-29T13:44:27;12.20;;;7.13;;
30948;SDS011;17637;51.984;21.208;2022-12-29T13:49:47;9.38;;;6.30;;
30948;SDS011;17637;51.984;21.208;2022-12-29T13:52:24;9.32;;;6.82;;
30948;SDS011;17637;51.984;21.208;2022-12-29T14:03:55;16.20;;;9.20;;
30948;SDS011;17637;51.984;21.208;2022-12-29T14:06:32;11.55;;;7.65;;
30948;SDS011;17637;51.984;21.208;2022-12-29T14:09:28;15.38;;;9.13;;
30948;SDS011;17637;51.984;21.208;2022-12-29T14:17:42;16.33;;;9.15;;
30948;SDS011;17637;51.984;21.208;2022-12-29T14:20:17;13.93;;;8.50;;
30948;SDS011;17637;51.984;21.208;2022-12-29T14:22:57;14.30;;;8.18;;
30948;SDS011;17637;51.984;21.208;2022-12-29T14:25:52;14.65;;;8.57;;
30948;SDS011;17637;51.984;21.208;2022-12-29T14:28:29;16.15;;;10.20;;
30948;SDS011;17637;51.984;21.208;2022-12-29T14:31:04;14.93;;;9.25;;
30948;SDS011;17637;51.984;21.208;2022-12-29T14:36:38;13.18;;;8.63;;
30948;SDS011;17637;51.984;21.208;2022-12-29T14:42:15;10.73;;;6.57;;
30948;SDS011;17637;51.984;21.208;2022-12-29T14:47:45;11.05;;;7.18;;
30948;SDS011;17637;51.984;21.208;2022-12-29T14:50:22;12.88;;;7.93;;
30948;SDS011;17637;51.984;21.208;2022-12-29T14:53:03;12.57;;;7.28;;
30948;SDS011;17637;51.984;21.208;2022-12-29T14:55:40;11.95;;;7.00;;
30948;SDS011;17637;51.984;21.208;2022-12-29T14:58:22;14.30;;;7.03;;
30948;SDS011;17637;51.984;21.208;2022-12-29T15:01:20;11.75;;;6.15;;
30948;SDS011;17637;51.984;21.208;2022-12-29T15:04:18;10.18;;;7.25;;
30948;SDS011;17637;51.984;21.208;2022-12-29T15:06:52;10.45;;;6.53;;
30948;SDS011;17637;51.984;21.208;2022-12-29T15:09:30;22.40;;;14.13;;
30948;SDS011;17637;51.984;21.208;2022-12-29T15:14:56;15.05;;;7.20;;
30948;SDS011;17637;51.984;21.208;2022-12-29T15:17:31;9.43;;;6.15;;
30948;SDS011;17637;51.984;21.208;2022-12-29T15:20:17;11.32;;;7.38;;
30948;SDS011;17637;51.984;21.208;2022-12-29T15:23:17;14.93;;;9.73;;
30948;SDS011;17637;51.984;21.208;2022-12-29T15:25:53;12.85;;;7.68;;
30948;SDS011;17637;51.984;21.208;2022-12-29T15:28:28;20.17;;;12.50;;
30948;SDS011;17637;51.984;21.208;2022-12-29T15:31:13;14.27;;;8.40;;
30948;SDS011;17637;51.984;21.208;2022-12-29T15:33:49;18.00;;;10.38;;
30948;SDS011;17637;51.984;21.208;2022-12-29T15:36:24;14.15;;;8.60;;
30948;SDS011;17637;51.984;21.208;2022-12-29T15:38:58;15.57;;;10.30;;
30948;SDS011;17637;51.984;21.208;2022-12-29T15:41:36;27.10;;;17.75;;
30948;SDS011;17637;51.984;21.208;2022-12-29T15:44:44;19.38;;;12.60;;
30948;SDS011;17637;51.984;21.208;2022-12-29T15:47:20;15.35;;;9.05;;
30948;SDS011;17637;51.984;21.208;2022-12-29T15:50:20;14.57;;;8.45;;
30948;SDS011;17637;51.984;21.208;2022-12-29T15:52:58;12.10;;;7.70;;
30948;SDS011;17637;51.984;21.208;2022-12-29T15:55:32;13.75;;;8.20;;
30948;SDS011;17637;51.984;21.208;2022-12-29T15:58:23;16.60;;;9.95;;
30948;SDS011;17637;51.984;21.208;2022-12-29T16:01:00;13.35;;;8.02;;
30948;SDS011;17637;51.984;21.208;2022-12-29T16:03:35;12.60;;;7.00;;
30948;SDS011;17637;51.984;21.208;2022-12-29T16:08:40;13.20;;;7.15;;
30948;SDS011;17637;51.984;21.208;2022-12-29T16:11:34;10.73;;;7.07;;
30948;SDS011;17637;51.984;21.208;2022-12-29T16:14:13;12.60;;;7.43;;
30948;SDS011;17637;51.984;21.208;2022-12-29T16:17:03;13.15;;;7.20;;
30948;SDS011;17637;51.984;21.208;2022-12-29T16:19:37;10.88;;;6.63;;
30948;SDS011;17637;51.984;21.208;2022-12-29T16:22:15;11.68;;;8.00;;
30948;SDS011;17637;51.984;21.208;2022-12-29T16:24:57;18.42;;;10.23;;
30948;SDS011;17637;51.984;21.208;2022-12-29T16:27:40;12.70;;;7.22;;
30948;SDS011;17637;51.984;21.208;2022-12-29T16:30:17;10.25;;;6.47;;
30948;SDS011;17637;51.984;21.208;2022-12-29T16:33:04;11.05;;;6.43;;
30948;SDS011;17637;51.984;21.208;2022-12-29T16:38:21;10.30;;;7.22;;
30948;SDS011;17637;51.984;21.208;2022-12-29T16:40:55;13.07;;;7.53;;
30948;SDS011;17637;51.984;21.208;2022-12-29T16:43:28;12.32;;;7.05;;
30948;SDS011;17637;51.984;21.208;2022-12-29T16:46:11;12.50;;;7.50;;
30948;SDS011;17637;51.984;21.208;2022-12-29T16:48:51;10.35;;;6.97;;
30948;SDS011;17637;51.984;21.208;2022-12-29T16:51:32;11.48;;;7.40;;
30948;SDS011;17637;51.984;21.208;2022-12-29T16:54:06;12.48;;;7.70;;
30948;SDS011;17637;51.984;21.208;2022-12-29T16:56:51;15.38;;;9.32;;
30948;SDS011;17637;51.984;21.208;2022-12-29T17:02:14;13.75;;;8.55;;
30948;SDS011;17637;51.984;21.208;2022-12-29T17:04:51;11.02;;;7.45;;
30948;SDS011;17637;51.984;21.208;2022-12-29T17:07:25;11.88;;;7.50;;
30948;SDS011;17637;51.984;21.208;2022-12-29T17:09:59;11.65;;;7.35;;
30948;SDS011;17637;51.984;21.208;2022-12-29T17:12:31;12.18;;;7.80;;
30948;SDS011;17637;51.984;21.208;2022-12-29T17:15:14;11.85;;;7.65;;
30948;SDS011;17637;51.984;21.208;2022-12-29T17:18:06;11.68;;;7.75;;
30948;SDS011;17637;51.984;21.208;2022-12-29T17:20:44;14.23;;;8.38;;
30948;SDS011;17637;51.984;21.208;2022-12-29T17:23:16;17.65;;;8.63;;
30948;SDS011;17637;51.984;21.208;2022-12-29T17:25:56;17.55;;;10.13;;
30948;SDS011;17637;51.984;21.208;2022-12-29T17:28:29;13.45;;;8.57;;
30948;SDS011;17637;51.984;21.208;2022-12-29T17:31:03;13.93;;;8.40;;
30948;SDS011;17637;51.984;21.208;2022-12-29T17:33:37;14.77;;;8.88;;
30948;SDS011;17637;51.984;21.208;2022-12-29T17:36:13;17.08;;;9.77;;
30948;SDS011;17637;51.984;21.208;2022-12-29T17:38:45;17.63;;;9.95;;
30948;SDS011;17637;51.984;21.208;2022-12-29T17:41:17;18.42;;;9.00;;
30948;SDS011;17637;51.984;21.208;2022-12-29T17:43:49;14.75;;;9.43;;
30948;SDS011;17637;51.984;21.208;2022-12-29T17:46:21;19.27;;;11.68;;